CYEK

Arviat Airport

Arviat, Canada
METAR CYEK 211500Z 24006KT 15SM FEW110 00/M02 A2989 RMK AC1 SLP125
Observed Flight Rules
Apr-21 @ 15:00 UTC (39 minutes ago) Visual Flight Rules
Wind Visibility Clouds
240° at 6 knots 15 miles
  • Few at 11,000' AGL
Temperatures Readings
Current 0°C / 32°F
Dewpoint -2°C / 28°F
Humidity 87%
Altimeter 29.89" Hg
Pressure 1012.5 hPa
Elevation 10
METAR CYEK 211500Z 24006KT 15SM FEW110 00/M02 A2989 RMK AC1 SLP125
Observed Flight Rules
Apr-21 @ 15:00 UTC
(39 minutes ago)
VFR
Wind Visibility
240° at 6 knots 15 miles
Clouds
  • Few at 11,000' AGL
Temperature Dewpoint
0°C / 32°F -2°C / 28°F
Humidity Altimeter Pressure
87% 29.89" Hg 1012.5 hPa